sensor_id;sensor_type;location;lat;lon;timestamp;P1;durP1;ratioP1;P2;durP2;ratioP2
60582;SDS011;46415;47.536;19.066;2022-08-18T00:02:11;4.93;;;4.53;;
60582;SDS011;46415;47.536;19.066;2022-08-18T00:05:16;6.47;;;5.10;;
60582;SDS011;46415;47.536;19.066;2022-08-18T00:08:19;6.90;;;4.97;;
60582;SDS011;46415;47.536;19.066;2022-08-18T00:11:22;5.40;;;4.70;;
60582;SDS011;46415;47.536;19.066;2022-08-18T00:14:25;7.82;;;4.85;;
60582;SDS011;46415;47.536;19.066;2022-08-18T00:17:28;4.90;;;4.40;;
60582;SDS011;46415;47.536;19.066;2022-08-18T00:20:30;5.82;;;4.80;;
60582;SDS011;46415;47.536;19.066;2022-08-18T00:23:33;8.95;;;4.90;;
60582;SDS011;46415;47.536;19.066;2022-08-18T00:26:36;5.65;;;4.80;;
60582;SDS011;46415;47.536;19.066;2022-08-18T00:29:39;5.97;;;4.60;;
60582;SDS011;46415;47.536;19.066;2022-08-18T00:32:42;5.65;;;4.90;;
60582;SDS011;46415;47.536;19.066;2022-08-18T00:35:48;5.27;;;4.73;;
60582;SDS011;46415;47.536;19.066;2022-08-18T00:38:51;5.57;;;4.95;;
60582;SDS011;46415;47.536;19.066;2022-08-18T00:41:54;5.97;;;5.25;;
60582;SDS011;46415;47.536;19.066;2022-08-18T00:44:59;6.18;;;4.93;;
60582;SDS011;46415;47.536;19.066;2022-08-18T00:48:04;5.60;;;4.93;;
60582;SDS011;46415;47.536;19.066;2022-08-18T00:51:11;5.80;;;4.87;;
60582;SDS011;46415;47.536;19.066;2022-08-18T00:54:23;5.87;;;5.03;;
60582;SDS011;46415;47.536;19.066;2022-08-18T00:57:29;9.20;;;5.82;;
60582;SDS011;46415;47.536;19.066;2022-08-18T01:00:33;7.35;;;5.18;;
60582;SDS011;46415;47.536;19.066;2022-08-18T01:03:36;7.18;;;5.10;;
60582;SDS011;46415;47.536;19.066;2022-08-18T01:06:42;5.80;;;5.20;;
60582;SDS011;46415;47.536;19.066;2022-08-18T01:09:49;5.70;;;5.20;;
60582;SDS011;46415;47.536;19.066;2022-08-18T01:12:55;6.32;;;5.72;;
60582;SDS011;46415;47.536;19.066;2022-08-18T01:15:59;6.25;;;5.37;;
60582;SDS011;46415;47.536;19.066;2022-08-18T01:19:23;6.25;;;5.70;;
60582;SDS011;46415;47.536;19.066;2022-08-18T01:25:50;6.60;;;6.00;;
60582;SDS011;46415;47.536;19.066;2022-08-18T01:29:05;6.15;;;5.55;;
60582;SDS011;46415;47.536;19.066;2022-08-18T01:32:22;6.75;;;6.12;;
60582;SDS011;46415;47.536;19.066;2022-08-18T01:35:25;8.27;;;5.82;;
60582;SDS011;46415;47.536;19.066;2022-08-18T01:38:29;7.12;;;6.28;;
60582;SDS011;46415;47.536;19.066;2022-08-18T01:41:35;8.25;;;5.78;;
60582;SDS011;46415;47.536;19.066;2022-08-18T01:44:38;6.85;;;6.05;;
60582;SDS011;46415;47.536;19.066;2022-08-18T01:47:43;7.35;;;6.22;;
60582;SDS011;46415;47.536;19.066;2022-08-18T01:50:49;10.25;;;6.10;;
60582;SDS011;46415;47.536;19.066;2022-08-18T01:53:54;6.43;;;5.72;;
60582;SDS011;46415;47.536;19.066;2022-08-18T01:56:58;7.20;;;5.93;;
60582;SDS011;46415;47.536;19.066;2022-08-18T02:00:00;6.93;;;5.97;;
60582;SDS011;46415;47.536;19.066;2022-08-18T02:03:12;8.07;;;6.28;;
60582;SDS011;46415;47.536;19.066;2022-08-18T02:06:16;6.93;;;5.70;;
60582;SDS011;46415;47.536;19.066;2022-08-18T02:09:33;9.68;;;6.03;;
60582;SDS011;46415;47.536;19.066;2022-08-18T02:12:39;7.07;;;6.25;;
60582;SDS011;46415;47.536;19.066;2022-08-18T02:15:42;8.10;;;6.47;;
60582;SDS011;46415;47.536;19.066;2022-08-18T02:18:45;6.87;;;6.20;;
60582;SDS011;46415;47.536;19.066;2022-08-18T02:21:50;7.03;;;6.30;;
60582;SDS011;46415;47.536;19.066;2022-08-18T02:24:55;7.00;;;6.30;;
60582;SDS011;46415;47.536;19.066;2022-08-18T02:27:59;7.68;;;6.47;;
60582;SDS011;46415;47.536;19.066;2022-08-18T02:31:06;6.65;;;5.97;;
60582;SDS011;46415;47.536;19.066;2022-08-18T02:34:13;7.78;;;6.10;;
60582;SDS011;46415;47.536;19.066;2022-08-18T02:37:17;10.10;;;6.60;;
60582;SDS011;46415;47.536;19.066;2022-08-18T02:40:19;6.53;;;5.93;;
60582;SDS011;46415;47.536;19.066;2022-08-18T02:43:23;7.00;;;6.30;;
60582;SDS011;46415;47.536;19.066;2022-08-18T02:46:26;10.93;;;6.72;;
60582;SDS011;46415;47.536;19.066;2022-08-18T02:49:32;7.18;;;6.43;;
60582;SDS011;46415;47.536;19.066;2022-08-18T02:52:34;7.25;;;6.55;;
60582;SDS011;46415;47.536;19.066;2022-08-18T02:55:39;7.15;;;6.43;;
60582;SDS011;46415;47.536;19.066;2022-08-18T02:58:42;8.40;;;6.32;;
60582;SDS011;46415;47.536;19.066;2022-08-18T03:01:46;7.55;;;6.20;;
60582;SDS011;46415;47.536;19.066;2022-08-18T03:04:51;10.13;;;6.57;;
60582;SDS011;46415;47.536;19.066;2022-08-18T03:07:54;7.37;;;6.37;;
60582;SDS011;46415;47.536;19.066;2022-08-18T03:10:57;8.07;;;6.30;;
60582;SDS011;46415;47.536;19.066;2022-08-18T03:14:00;8.45;;;6.50;;
60582;SDS011;46415;47.536;19.066;2022-08-18T03:17:03;6.93;;;6.28;;
60582;SDS011;46415;47.536;19.066;2022-08-18T03:20:08;7.75;;;6.60;;
60582;SDS011;46415;47.536;19.066;2022-08-18T03:23:11;7.90;;;7.10;;
60582;SDS011;46415;47.536;19.066;2022-08-18T03:26:16;7.85;;;6.50;;
60582;SDS011;46415;47.536;19.066;2022-08-18T03:29:20;7.78;;;7.07;;
60582;SDS011;46415;47.536;19.066;2022-08-18T03:32:23;9.02;;;7.05;;
60582;SDS011;46415;47.536;19.066;2022-08-18T03:35:25;7.32;;;6.57;;
60582;SDS011;46415;47.536;19.066;2022-08-18T03:38:28;7.43;;;6.72;;
60582;SDS011;46415;47.536;19.066;2022-08-18T03:41:31;7.55;;;6.85;;
60582;SDS011;46415;47.536;19.066;2022-08-18T03:44:53;7.82;;;7.03;;
60582;SDS011;46415;47.536;19.066;2022-08-18T03:47:56;9.52;;;7.32;;
60582;SDS011;46415;47.536;19.066;2022-08-18T03:51:03;7.37;;;6.68;;
60582;SDS011;46415;47.536;19.066;2022-08-18T03:54:09;9.52;;;7.57;;
60582;SDS011;46415;47.536;19.066;2022-08-18T03:57:12;8.63;;;7.10;;
60582;SDS011;46415;47.536;19.066;2022-08-18T04:00:15;8.50;;;7.30;;
60582;SDS011;46415;47.536;19.066;2022-08-18T04:03:18;10.63;;;7.62;;
60582;SDS011;46415;47.536;19.066;2022-08-18T04:06:25;9.32;;;7.28;;
60582;SDS011;46415;47.536;19.066;2022-08-18T04:09:32;8.32;;;7.53;;
60582;SDS011;46415;47.536;19.066;2022-08-18T04:12:36;8.55;;;7.65;;
60582;SDS011;46415;47.536;19.066;2022-08-18T04:15:41;8.77;;;7.95;;
60582;SDS011;46415;47.536;19.066;2022-08-18T04:18:43;10.60;;;7.90;;
60582;SDS011;46415;47.536;19.066;2022-08-18T04:21:46;9.50;;;7.60;;
60582;SDS011;46415;47.536;19.066;2022-08-18T04:24:53;9.53;;;8.40;;
60582;SDS011;46415;47.536;19.066;2022-08-18T04:27:59;9.00;;;7.70;;
60582;SDS011;46415;47.536;19.066;2022-08-18T04:31:06;13.13;;;8.63;;
60582;SDS011;46415;47.536;19.066;2022-08-18T04:34:12;11.27;;;7.53;;
60582;SDS011;46415;47.536;19.066;2022-08-18T04:37:15;13.18;;;8.20;;
60582;SDS011;46415;47.536;19.066;2022-08-18T04:40:19;9.57;;;8.18;;
60582;SDS011;46415;47.536;19.066;2022-08-18T04:43:26;9.80;;;8.47;;
60582;SDS011;46415;47.536;19.066;2022-08-18T04:46:29;13.52;;;8.23;;
60582;SDS011;46415;47.536;19.066;2022-08-18T04:49:35;9.02;;;7.95;;
60582;SDS011;46415;47.536;19.066;2022-08-18T04:52:39;13.68;;;8.50;;
60582;SDS011;46415;47.536;19.066;2022-08-18T04:56:00;9.27;;;8.00;;
60582;SDS011;46415;47.536;19.066;2022-08-18T04:59:07;11.80;;;8.23;;
60582;SDS011;46415;47.536;19.066;2022-08-18T05:02:11;9.75;;;8.57;;
60582;SDS011;46415;47.536;19.066;2022-08-18T05:05:16;10.75;;;8.60;;
60582;SDS011;46415;47.536;19.066;2022-08-18T05:08:19;11.18;;;8.43;;
60582;SDS011;46415;47.536;19.066;2022-08-18T05:11:24;14.32;;;9.38;;
60582;SDS011;46415;47.536;19.066;2022-08-18T05:14:29;10.23;;;8.90;;
60582;SDS011;46415;47.536;19.066;2022-08-18T05:17:34;11.32;;;8.50;;
60582;SDS011;46415;47.536;19.066;2022-08-18T05:20:40;10.40;;;9.20;;
60582;SDS011;46415;47.536;19.066;2022-08-18T05:23:47;11.75;;;9.48;;
60582;SDS011;46415;47.536;19.066;2022-08-18T05:26:51;13.40;;;9.25;;
60582;SDS011;46415;47.536;19.066;2022-08-18T05:29:54;12.20;;;9.00;;
60582;SDS011;46415;47.536;19.066;2022-08-18T05:32:57;11.32;;;9.18;;
60582;SDS011;46415;47.536;19.066;2022-08-18T05:36:03;43.53;;;9.95;;
60582;SDS011;46415;47.536;19.066;2022-08-18T05:42:22;10.18;;;9.13;;
60582;SDS011;46415;47.536;19.066;2022-08-18T05:45:27;11.38;;;9.45;;
60582;SDS011;46415;47.536;19.066;2022-08-18T05:48:31;12.95;;;9.02;;
60582;SDS011;46415;47.536;19.066;2022-08-18T05:51:38;13.07;;;9.27;;
60582;SDS011;46415;47.536;19.066;2022-08-18T05:54:47;11.82;;;9.18;;
60582;SDS011;46415;47.536;19.066;2022-08-18T05:58:21;12.00;;;9.55;;
60582;SDS011;46415;47.536;19.066;2022-08-18T06:01:38;14.25;;;9.75;;
60582;SDS011;46415;47.536;19.066;2022-08-18T06:04:51;12.90;;;9.23;;
60582;SDS011;46415;47.536;19.066;2022-08-18T06:07:58;13.02;;;9.95;;
60582;SDS011;46415;47.536;19.066;2022-08-18T06:11:08;10.48;;;8.85;;
60582;SDS011;46415;47.536;19.066;2022-08-18T06:14:24;11.15;;;9.10;;
60582;SDS011;46415;47.536;19.066;2022-08-18T06:17:34;11.63;;;9.43;;
60582;SDS011;46415;47.536;19.066;2022-08-18T06:21:10;10.95;;;9.38;;
60582;SDS011;46415;47.536;19.066;2022-08-18T06:24:45;10.38;;;9.27;;
60582;SDS011;46415;47.536;19.066;2022-08-18T06:28:02;10.52;;;9.48;;
60582;SDS011;46415;47.536;19.066;2022-08-18T06:31:15;9.32;;;8.45;;
60582;SDS011;46415;47.536;19.066;2022-08-18T06:41:16;11.40;;;9.25;;
60582;SDS011;46415;47.536;19.066;2022-08-18T06:45:21;13.62;;;8.98;;
60582;SDS011;46415;47.536;19.066;2022-08-18T06:51:58;12.35;;;9.75;;
60582;SDS011;46415;47.536;19.066;2022-08-18T06:55:05;9.68;;;8.63;;
60582;SDS011;46415;47.536;19.066;2022-08-18T07:01:13;11.88;;;8.95;;
60582;SDS011;46415;47.536;19.066;2022-08-18T07:04:29;12.65;;;9.90;;
60582;SDS011;46415;47.536;19.066;2022-08-18T07:07:39;13.00;;;9.38;;
60582;SDS011;46415;47.536;19.066;2022-08-18T07:10:47;11.55;;;9.02;;
60582;SDS011;46415;47.536;19.066;2022-08-18T07:13:53;10.65;;;9.30;;
60582;SDS011;46415;47.536;19.066;2022-08-18T07:17:31;10.00;;;8.38;;
60582;SDS011;46415;47.536;19.066;2022-08-18T07:20:56;13.98;;;8.93;;
60582;SDS011;46415;47.536;19.066;2022-08-18T07:24:11;8.80;;;7.93;;
60582;SDS011;46415;47.536;19.066;2022-08-18T07:27:46;9.07;;;7.50;;
60582;SDS011;46415;47.536;19.066;2022-08-18T07:31:06;10.32;;;8.07;;
60582;SDS011;46415;47.536;19.066;2022-08-18T07:37:31;12.32;;;7.85;;
60582;SDS011;46415;47.536;19.066;2022-08-18T07:40:58;8.65;;;7.75;;
60582;SDS011;46415;47.536;19.066;2022-08-18T07:47:19;8.18;;;7.35;;
60582;SDS011;46415;47.536;19.066;2022-08-18T07:50:27;9.18;;;7.28;;
60582;SDS011;46415;47.536;19.066;2022-08-18T07:54:00;11.07;;;7.68;;
60582;SDS011;46415;47.536;19.066;2022-08-18T07:57:46;9.70;;;8.07;;
60582;SDS011;46415;47.536;19.066;2022-08-18T08:01:04;10.00;;;7.72;;
60582;SDS011;46415;47.536;19.066;2022-08-18T08:04:35;8.27;;;7.40;;
60582;SDS011;46415;47.536;19.066;2022-08-18T08:10:58;8.43;;;6.90;;
60582;SDS011;46415;47.536;19.066;2022-08-18T08:14:54;10.52;;;7.47;;
60582;SDS011;46415;47.536;19.066;2022-08-18T08:21:02;11.12;;;7.82;;
60582;SDS011;46415;47.536;19.066;2022-08-18T08:27:43;8.07;;;7.22;;
60582;SDS011;46415;47.536;19.066;2022-08-18T08:34:36;10.23;;;7.25;;
60582;SDS011;46415;47.536;19.066;2022-08-18T08:37:51;8.85;;;7.35;;
60582;SDS011;46415;47.536;19.066;2022-08-18T08:41:00;8.45;;;7.65;;
60582;SDS011;46415;47.536;19.066;2022-08-18T08:44:14;7.62;;;6.93;;
60582;SDS011;46415;47.536;19.066;2022-08-18T08:47:25;9.68;;;7.20;;
60582;SDS011;46415;47.536;19.066;2022-08-18T08:50:38;8.27;;;7.15;;
60582;SDS011;46415;47.536;19.066;2022-08-18T08:53:48;8.68;;;6.55;;
60582;SDS011;46415;47.536;19.066;2022-08-18T08:56:58;9.50;;;7.07;;
60582;SDS011;46415;47.536;19.066;2022-08-18T09:00:04;12.25;;;7.55;;
60582;SDS011;46415;47.536;19.066;2022-08-18T09:06:36;8.88;;;7.18;;
60582;SDS011;46415;47.536;19.066;2022-08-18T09:09:54;11.15;;;6.47;;
60582;SDS011;46415;47.536;19.066;2022-08-18T09:16:54;9.07;;;7.12;;
60582;SDS011;46415;47.536;19.066;2022-08-18T09:23:52;11.07;;;7.07;;
60582;SDS011;46415;47.536;19.066;2022-08-18T09:40:27;7.82;;;5.97;;
60582;SDS011;46415;47.536;19.066;2022-08-18T09:50:33;8.43;;;6.03;;
60582;SDS011;46415;47.536;19.066;2022-08-18T09:54:09;7.93;;;5.85;;
60582;SDS011;46415;47.536;19.066;2022-08-18T09:57:16;7.00;;;5.72;;
60582;SDS011;46415;47.536;19.066;2022-08-18T10:00:27;10.32;;;6.05;;
60582;SDS011;46415;47.536;19.066;2022-08-18T10:07:31;6.72;;;5.60;;
60582;SDS011;46415;47.536;19.066;2022-08-18T10:14:22;6.40;;;5.80;;
60582;SDS011;46415;47.536;19.066;2022-08-18T10:21:10;6.90;;;6.05;;
60582;SDS011;46415;47.536;19.066;2022-08-18T10:24:32;9.20;;;5.95;;
60582;SDS011;46415;47.536;19.066;2022-08-18T10:27:57;6.60;;;5.80;;
60582;SDS011;46415;47.536;19.066;2022-08-18T10:31:02;5.97;;;5.40;;
60582;SDS011;46415;47.536;19.066;2022-08-18T10:34:11;6.07;;;5.47;;
60582;SDS011;46415;47.536;19.066;2022-08-18T10:37:25;9.40;;;6.00;;
60582;SDS011;46415;47.536;19.066;2022-08-18T10:41:23;8.70;;;5.22;;
60582;SDS011;46415;47.536;19.066;2022-08-18T10:44:33;5.70;;;5.10;;
60582;SDS011;46415;47.536;19.066;2022-08-18T10:47:43;7.32;;;5.40;;
60582;SDS011;46415;47.536;19.066;2022-08-18T11:07:19;4.95;;;4.45;;
60582;SDS011;46415;47.536;19.066;2022-08-18T11:10:36;5.12;;;3.90;;
60582;SDS011;46415;47.536;19.066;2022-08-18T11:20:44;5.35;;;4.50;;
60582;SDS011;46415;47.536;19.066;2022-08-18T11:27:19;8.48;;;4.00;;
60582;SDS011;46415;47.536;19.066;2022-08-18T11:30:30;4.20;;;3.85;;
60582;SDS011;46415;47.536;19.066;2022-08-18T11:33:41;4.40;;;3.92;;
60582;SDS011;46415;47.536;19.066;2022-08-18T11:36:53;6.55;;;3.87;;
60582;SDS011;46415;47.536;19.066;2022-08-18T11:40:04;6.00;;;3.83;;
60582;SDS011;46415;47.536;19.066;2022-08-18T11:43:23;6.00;;;4.35;;
60582;SDS011;46415;47.536;19.066;2022-08-18T11:46:35;8.45;;;4.35;;
60582;SDS011;46415;47.536;19.066;2022-08-18T11:49:56;4.97;;;4.47;;
60582;SDS011;46415;47.536;19.066;2022-08-18T11:53:15;4.25;;;3.85;;
60582;SDS011;46415;47.536;19.066;2022-08-18T11:56:45;4.05;;;3.75;;
60582;SDS011;46415;47.536;19.066;2022-08-18T11:59:51;4.82;;;4.32;;
60582;SDS011;46415;47.536;19.066;2022-08-18T12:03:03;9.27;;;4.07;;
60582;SDS011;46415;47.536;19.066;2022-08-18T12:06:27;5.60;;;4.03;;
60582;SDS011;46415;47.536;19.066;2022-08-18T12:13:05;4.95;;;4.53;;
60582;SDS011;46415;47.536;19.066;2022-08-18T12:16:09;5.80;;;4.45;;
60582;SDS011;46415;47.536;19.066;2022-08-18T12:19:34;4.57;;;4.18;;
60582;SDS011;46415;47.536;19.066;2022-08-18T12:22:38;6.32;;;4.43;;
60582;SDS011;46415;47.536;19.066;2022-08-18T12:25:44;6.53;;;4.20;;
60582;SDS011;46415;47.536;19.066;2022-08-18T12:28:47;7.50;;;4.12;;
60582;SDS011;46415;47.536;19.066;2022-08-18T12:31:50;4.22;;;3.92;;
60582;SDS011;46415;47.536;19.066;2022-08-18T12:34:55;4.80;;;4.37;;
60582;SDS011;46415;47.536;19.066;2022-08-18T12:38:02;5.53;;;4.30;;
60582;SDS011;46415;47.536;19.066;2022-08-18T12:41:15;6.30;;;4.37;;
60582;SDS011;46415;47.536;19.066;2022-08-18T12:44:25;5.68;;;4.50;;
60582;SDS011;46415;47.536;19.066;2022-08-18T12:47:28;4.30;;;3.95;;
60582;SDS011;46415;47.536;19.066;2022-08-18T12:50:36;4.32;;;3.90;;
60582;SDS011;46415;47.536;19.066;2022-08-18T12:53:56;5.32;;;4.28;;
60582;SDS011;46415;47.536;19.066;2022-08-18T12:57:02;6.35;;;4.35;;
60582;SDS011;46415;47.536;19.066;2022-08-18T13:00:08;4.68;;;4.12;;
60582;SDS011;46415;47.536;19.066;2022-08-18T13:03:32;5.70;;;4.37;;
60582;SDS011;46415;47.536;19.066;2022-08-18T13:06:37;5.93;;;4.43;;
60582;SDS011;46415;47.536;19.066;2022-08-18T13:10:02;8.65;;;5.00;;
60582;SDS011;46415;47.536;19.066;2022-08-18T13:13:06;5.12;;;4.62;;
60582;SDS011;46415;47.536;19.066;2022-08-18T13:16:10;6.18;;;4.37;;
60582;SDS011;46415;47.536;19.066;2022-08-18T13:19:31;5.07;;;4.57;;
60582;SDS011;46415;47.536;19.066;2022-08-18T13:22:37;7.07;;;4.32;;
60582;SDS011;46415;47.536;19.066;2022-08-18T13:25:43;7.05;;;4.25;;
60582;SDS011;46415;47.536;19.066;2022-08-18T13:28:48;6.82;;;4.45;;
60582;SDS011;46415;47.536;19.066;2022-08-18T13:31:59;5.57;;;4.18;;
60582;SDS011;46415;47.536;19.066;2022-08-18T13:35:02;5.10;;;4.30;;
60582;SDS011;46415;47.536;19.066;2022-08-18T13:38:16;5.75;;;4.15;;
60582;SDS011;46415;47.536;19.066;2022-08-18T13:41:29;4.95;;;4.00;;
60582;SDS011;46415;47.536;19.066;2022-08-18T13:44:34;6.40;;;4.37;;
60582;SDS011;46415;47.536;19.066;2022-08-18T13:47:37;6.45;;;4.10;;
60582;SDS011;46415;47.536;19.066;2022-08-18T13:50:45;4.28;;;3.72;;
60582;SDS011;46415;47.536;19.066;2022-08-18T13:53:54;4.25;;;3.85;;
60582;SDS011;46415;47.536;19.066;2022-08-18T13:57:17;4.47;;;4.00;;
60582;SDS011;46415;47.536;19.066;2022-08-18T14:00:24;4.40;;;4.00;;
60582;SDS011;46415;47.536;19.066;2022-08-18T14:03:32;7.22;;;4.37;;
60582;SDS011;46415;47.536;19.066;2022-08-18T14:06:49;9.02;;;4.10;;
60582;SDS011;46415;47.536;19.066;2022-08-18T14:10:02;4.57;;;4.18;;
60582;SDS011;46415;47.536;19.066;2022-08-18T14:13:14;6.87;;;4.45;;
60582;SDS011;46415;47.536;19.066;2022-08-18T14:16:26;4.90;;;3.95;;
60582;SDS011;46415;47.536;19.066;2022-08-18T14:19:29;8.82;;;4.40;;
60582;SDS011;46415;47.536;19.066;2022-08-18T14:22:51;7.78;;;4.43;;
60582;SDS011;46415;47.536;19.066;2022-08-18T14:26:22;6.60;;;4.43;;
60582;SDS011;46415;47.536;19.066;2022-08-18T14:29:44;4.62;;;4.22;;
60582;SDS011;46415;47.536;19.066;2022-08-18T14:32:51;5.82;;;4.30;;
60582;SDS011;46415;47.536;19.066;2022-08-18T14:35:55;5.32;;;4.35;;
60582;SDS011;46415;47.536;19.066;2022-08-18T14:39:08;5.90;;;4.00;;
60582;SDS011;46415;47.536;19.066;2022-08-18T14:42:13;5.78;;;3.97;;
60582;SDS011;46415;47.536;19.066;2022-08-18T14:45:18;7.35;;;4.22;;
60582;SDS011;46415;47.536;19.066;2022-08-18T14:48:36;9.15;;;4.78;;
60582;SDS011;46415;47.536;19.066;2022-08-18T14:51:43;7.18;;;4.22;;
60582;SDS011;46415;47.536;19.066;2022-08-18T14:54:46;7.25;;;4.50;;
60582;SDS011;46415;47.536;19.066;2022-08-18T14:57:52;9.43;;;4.80;;
60582;SDS011;46415;47.536;19.066;2022-08-18T15:00:57;5.78;;;4.45;;
60582;SDS011;46415;47.536;19.066;2022-08-18T15:04:11;6.70;;;4.35;;
60582;SDS011;46415;47.536;19.066;2022-08-18T15:07:21;5.53;;;4.53;;
60582;SDS011;46415;47.536;19.066;2022-08-18T15:10:25;4.60;;;4.10;;
60582;SDS011;46415;47.536;19.066;2022-08-18T15:13:29;8.82;;;4.12;;
60582;SDS011;46415;47.536;19.066;2022-08-18T15:16:33;5.35;;;4.18;;
60582;SDS011;46415;47.536;19.066;2022-08-18T15:19:40;6.45;;;4.20;;
60582;SDS011;46415;47.536;19.066;2022-08-18T15:23:02;6.87;;;4.40;;
60582;SDS011;46415;47.536;19.066;2022-08-18T15:26:29;4.95;;;4.43;;
60582;SDS011;46415;47.536;19.066;2022-08-18T15:29:35;9.33;;;4.10;;
60582;SDS011;46415;47.536;19.066;2022-08-18T15:32:43;10.45;;;3.97;;
60582;SDS011;46415;47.536;19.066;2022-08-18T15:35:48;6.25;;;3.40;;
60582;SDS011;46415;47.536;19.066;2022-08-18T15:38:52;6.30;;;3.62;;
60582;SDS011;46415;47.536;19.066;2022-08-18T15:41:55;8.10;;;3.65;;
60582;SDS011;46415;47.536;19.066;2022-08-18T15:45:00;5.03;;;3.55;;
60582;SDS011;46415;47.536;19.066;2022-08-18T15:48:14;4.72;;;3.20;;
60582;SDS011;46415;47.536;19.066;2022-08-18T15:51:18;4.22;;;3.03;;
60582;SDS011;46415;47.536;19.066;2022-08-18T15:54:21;3.78;;;3.20;;
60582;SDS011;46415;47.536;19.066;2022-08-18T15:57:27;7.20;;;3.45;;
60582;SDS011;46415;47.536;19.066;2022-08-18T16:00:43;4.05;;;2.95;;
60582;SDS011;46415;47.536;19.066;2022-08-18T16:03:48;7.85;;;3.78;;
60582;SDS011;46415;47.536;19.066;2022-08-18T16:06:54;5.35;;;3.37;;
60582;SDS011;46415;47.536;19.066;2022-08-18T16:09:57;7.12;;;3.20;;
60582;SDS011;46415;47.536;19.066;2022-08-18T16:13:00;3.58;;;2.90;;
60582;SDS011;46415;47.536;19.066;2022-08-18T16:16:10;7.00;;;3.50;;
60582;SDS011;46415;47.536;19.066;2022-08-18T16:19:14;5.15;;;3.15;;
60582;SDS011;46415;47.536;19.066;2022-08-18T16:22:19;8.13;;;3.12;;
60582;SDS011;46415;47.536;19.066;2022-08-18T16:25:23;4.07;;;3.03;;
60582;SDS011;46415;47.536;19.066;2022-08-18T16:28:26;9.38;;;3.25;;
60582;SDS011;46415;47.536;19.066;2022-08-18T16:31:36;4.40;;;3.00;;
60582;SDS011;46415;47.536;19.066;2022-08-18T16:34:39;4.75;;;2.97;;
60582;SDS011;46415;47.536;19.066;2022-08-18T16:37:42;6.78;;;3.10;;
60582;SDS011;46415;47.536;19.066;2022-08-18T16:40:45;4.90;;;3.30;;
60582;SDS011;46415;47.536;19.066;2022-08-18T16:43:48;5.80;;;3.28;;
60582;SDS011;46415;47.536;19.066;2022-08-18T16:46:51;10.35;;;3.10;;
60582;SDS011;46415;47.536;19.066;2022-08-18T16:49:54;5.18;;;3.10;;
60582;SDS011;46415;47.536;19.066;2022-08-18T16:53:00;7.15;;;3.33;;
60582;SDS011;46415;47.536;19.066;2022-08-18T16:56:02;4.35;;;3.20;;
60582;SDS011;46415;47.536;19.066;2022-08-18T16:59:12;3.50;;;3.20;;
60582;SDS011;46415;47.536;19.066;2022-08-18T17:02:33;3.83;;;3.10;;
60582;SDS011;46415;47.536;19.066;2022-08-18T17:06:05;5.82;;;3.42;;
60582;SDS011;46415;47.536;19.066;2022-08-18T17:09:10;5.03;;;3.30;;
60582;SDS011;46415;47.536;19.066;2022-08-18T17:12:13;4.32;;;3.60;;
60582;SDS011;46415;47.536;19.066;2022-08-18T17:15:16;6.37;;;3.20;;
60582;SDS011;46415;47.536;19.066;2022-08-18T17:18:19;6.45;;;3.67;;
60582;SDS011;46415;47.536;19.066;2022-08-18T17:21:23;4.90;;;3.28;;
60582;SDS011;46415;47.536;19.066;2022-08-18T17:24:28;6.20;;;3.62;;
60582;SDS011;46415;47.536;19.066;2022-08-18T17:27:33;6.10;;;3.60;;
60582;SDS011;46415;47.536;19.066;2022-08-18T17:30:42;4.15;;;3.35;;
60582;SDS011;46415;47.536;19.066;2022-08-18T17:33:50;9.90;;;3.83;;
60582;SDS011;46415;47.536;19.066;2022-08-18T17:36:56;3.77;;;3.10;;
60582;SDS011;46415;47.536;19.066;2022-08-18T17:40:03;5.72;;;3.35;;
60582;SDS011;46415;47.536;19.066;2022-08-18T17:43:11;6.12;;;3.30;;
60582;SDS011;46415;47.536;19.066;2022-08-18T17:49:32;7.95;;;3.80;;
60582;SDS011;46415;47.536;19.066;2022-08-18T17:53:17;6.03;;;3.97;;
60582;SDS011;46415;47.536;19.066;2022-08-18T17:56:24;8.77;;;4.15;;
60582;SDS011;46415;47.536;19.066;2022-08-18T17:59:39;8.13;;;4.00;;
60582;SDS011;46415;47.536;19.066;2022-08-18T18:02:53;5.13;;;3.63;;
60582;SDS011;46415;47.536;19.066;2022-08-18T18:09:32;4.97;;;3.70;;
60582;SDS011;46415;47.536;19.066;2022-08-18T18:12:38;6.07;;;3.87;;
60582;SDS011;46415;47.536;19.066;2022-08-18T18:15:46;7.93;;;4.28;;
60582;SDS011;46415;47.536;19.066;2022-08-18T18:18:56;5.47;;;3.83;;
60582;SDS011;46415;47.536;19.066;2022-08-18T18:22:07;6.55;;;3.70;;
60582;SDS011;46415;47.536;19.066;2022-08-18T18:25:23;8.00;;;4.00;;
60582;SDS011;46415;47.536;19.066;2022-08-18T18:28:36;5.65;;;3.90;;
60582;SDS011;46415;47.536;19.066;2022-08-18T18:31:40;9.73;;;3.78;;
60582;SDS011;46415;47.536;19.066;2022-08-18T18:34:59;6.78;;;3.72;;
60582;SDS011;46415;47.536;19.066;2022-08-18T18:38:04;8.27;;;4.12;;
60582;SDS011;46415;47.536;19.066;2022-08-18T18:41:25;11.30;;;4.55;;
60582;SDS011;46415;47.536;19.066;2022-08-18T18:44:29;8.23;;;4.20;;
60582;SDS011;46415;47.536;19.066;2022-08-18T18:50:53;8.55;;;4.18;;
60582;SDS011;46415;47.536;19.066;2022-08-18T18:54:35;10.15;;;4.43;;
60582;SDS011;46415;47.536;19.066;2022-08-18T18:58:07;6.25;;;4.30;;
60582;SDS011;46415;47.536;19.066;2022-08-18T19:01:53;7.68;;;4.82;;
60582;SDS011;46415;47.536;19.066;2022-08-18T19:05:03;7.35;;;4.65;;
60582;SDS011;46415;47.536;19.066;2022-08-18T19:15:14;7.10;;;5.15;;
60582;SDS011;46415;47.536;19.066;2022-08-18T19:21:28;9.50;;;5.00;;
60582;SDS011;46415;47.536;19.066;2022-08-18T19:24:55;8.93;;;6.00;;
60582;SDS011;46415;47.536;19.066;2022-08-18T19:28:03;9.75;;;5.30;;
60582;SDS011;46415;47.536;19.066;2022-08-18T19:31:22;7.70;;;5.82;;
60582;SDS011;46415;47.536;19.066;2022-08-18T19:34:38;6.90;;;5.55;;
60582;SDS011;46415;47.536;19.066;2022-08-18T19:37:59;12.90;;;6.72;;
60582;SDS011;46415;47.536;19.066;2022-08-18T19:41:18;7.97;;;6.00;;
60582;SDS011;46415;47.536;19.066;2022-08-18T19:44:35;8.10;;;6.50;;
60582;SDS011;46415;47.536;19.066;2022-08-18T19:48:48;9.20;;;6.32;;
60582;SDS011;46415;47.536;19.066;2022-08-18T19:51:43;7.47;;;6.60;;
60582;SDS011;46415;47.536;19.066;2022-08-18T19:58:34;8.52;;;6.72;;
60582;SDS011;46415;47.536;19.066;2022-08-18T20:02:17;8.95;;;6.12;;
60582;SDS011;46415;47.536;19.066;2022-08-18T20:05:36;7.20;;;6.50;;
60582;SDS011;46415;47.536;19.066;2022-08-18T20:22:47;8.93;;;6.30;;
60582;SDS011;46415;47.536;19.066;2022-08-18T20:25:58;7.35;;;6.65;;
60582;SDS011;46415;47.536;19.066;2022-08-18T20:29:01;6.28;;;5.65;;
60582;SDS011;46415;47.536;19.066;2022-08-18T20:32:05;6.75;;;6.15;;
60582;SDS011;46415;47.536;19.066;2022-08-18T20:35:25;6.43;;;5.82;;
60582;SDS011;46415;47.536;19.066;2022-08-18T20:41:43;10.13;;;6.20;;
60582;SDS011;46415;47.536;19.066;2022-08-18T20:44:58;7.43;;;5.72;;
60582;SDS011;46415;47.536;19.066;2022-08-18T20:48:11;10.52;;;6.47;;
60582;SDS011;46415;47.536;19.066;2022-08-18T20:51:24;6.72;;;6.10;;
60582;SDS011;46415;47.536;19.066;2022-08-18T20:54:44;7.40;;;6.43;;
60582;SDS011;46415;47.536;19.066;2022-08-18T20:58:01;7.90;;;6.37;;
60582;SDS011;46415;47.536;19.066;2022-08-18T21:01:11;10.32;;;6.70;;
60582;SDS011;46415;47.536;19.066;2022-08-18T21:04:15;6.82;;;6.20;;
60582;SDS011;46415;47.536;19.066;2022-08-18T21:07:19;6.93;;;6.22;;
60582;SDS011;46415;47.536;19.066;2022-08-18T21:13:53;7.07;;;6.37;;
60582;SDS011;46415;47.536;19.066;2022-08-18T21:16:58;7.28;;;6.07;;
60582;SDS011;46415;47.536;19.066;2022-08-18T21:20:03;7.68;;;6.45;;
60582;SDS011;46415;47.536;19.066;2022-08-18T21:23:12;7.22;;;6.40;;